sensor_id;sensor_type;location;lat;lon;timestamp;P1;durP1;ratioP1;P2;durP2;ratioP2
24301;SDS011;12421;49.732;20.078;2023-09-18T00:12:16;6.40;;;3.70;;
24301;SDS011;12421;49.732;20.078;2023-09-18T00:44:57;10.00;;;3.40;;
24301;SDS011;12421;49.732;20.078;2023-09-18T01:06:34;4.50;;;3.40;;
24301;SDS011;12421;49.732;20.078;2023-09-18T01:16:42;7.80;;;3.70;;
24301;SDS011;12421;49.732;20.078;2023-09-18T01:26:53;5.50;;;3.10;;
24301;SDS011;12421;49.732;20.078;2023-09-18T01:37:19;5.40;;;3.50;;
24301;SDS011;12421;49.732;20.078;2023-09-18T01:47:24;5.30;;;3.30;;
24301;SDS011;12421;49.732;20.078;2023-09-18T01:57:27;4.60;;;2.90;;
24301;SDS011;12421;49.732;20.078;2023-09-18T02:07:32;4.70;;;3.10;;
24301;SDS011;12421;49.732;20.078;2023-09-18T02:17:35;8.30;;;4.40;;
24301;SDS011;12421;49.732;20.078;2023-09-18T02:27:38;6.80;;;3.00;;
24301;SDS011;12421;49.732;20.078;2023-09-18T02:37:41;8.40;;;3.20;;
24301;SDS011;12421;49.732;20.078;2023-09-18T02:47:45;5.60;;;4.00;;
24301;SDS011;12421;49.732;20.078;2023-09-18T02:57:48;6.50;;;3.50;;
24301;SDS011;12421;49.732;20.078;2023-09-18T03:07:51;5.30;;;4.10;;
24301;SDS011;12421;49.732;20.078;2023-09-18T03:17:55;25.00;;;4.50;;
24301;SDS011;12421;49.732;20.078;2023-09-18T03:28:00;6.20;;;4.50;;
24301;SDS011;12421;49.732;20.078;2023-09-18T03:38:05;9.70;;;4.60;;
24301;SDS011;12421;49.732;20.078;2023-09-18T03:48:09;11.10;;;4.90;;
24301;SDS011;12421;49.732;20.078;2023-09-18T03:58:13;6.50;;;4.50;;
24301;SDS011;12421;49.732;20.078;2023-09-18T04:08:17;7.90;;;4.20;;
24301;SDS011;12421;49.732;20.078;2023-09-18T04:18:21;6.80;;;4.60;;
24301;SDS011;12421;49.732;20.078;2023-09-18T04:28:24;4.30;;;3.50;;
24301;SDS011;12421;49.732;20.078;2023-09-18T04:38:27;9.40;;;4.60;;
24301;SDS011;12421;49.732;20.078;2023-09-18T04:48:31;8.00;;;4.20;;
24301;SDS011;12421;49.732;20.078;2023-09-18T04:58:36;15.20;;;4.70;;
24301;SDS011;12421;49.732;20.078;2023-09-18T05:08:42;5.60;;;4.10;;
24301;SDS011;12421;49.732;20.078;2023-09-18T05:18:46;32.40;;;4.30;;
24301;SDS011;12421;49.732;20.078;2023-09-18T05:28:49;9.40;;;4.70;;
24301;SDS011;12421;49.732;20.078;2023-09-18T05:49:22;4.90;;;4.00;;
24301;SDS011;12421;49.732;20.078;2023-09-18T05:59:26;5.80;;;3.70;;
24301;SDS011;12421;49.732;20.078;2023-09-18T06:09:29;9.80;;;6.50;;
24301;SDS011;12421;49.732;20.078;2023-09-18T06:19:33;22.00;;;18.60;;
24301;SDS011;12421;49.732;20.078;2023-09-18T06:29:36;6.60;;;5.60;;
24301;SDS011;12421;49.732;20.078;2023-09-18T06:39:45;6.60;;;5.60;;
24301;SDS011;12421;49.732;20.078;2023-09-18T06:49:48;4.90;;;4.30;;
24301;SDS011;12421;49.732;20.078;2023-09-18T06:59:51;8.60;;;5.30;;
24301;SDS011;12421;49.732;20.078;2023-09-18T07:09:54;7.50;;;5.50;;
24301;SDS011;12421;49.732;20.078;2023-09-18T07:20:01;7.40;;;5.90;;
24301;SDS011;12421;49.732;20.078;2023-09-18T07:30:13;7.00;;;5.50;;
24301;SDS011;12421;49.732;20.078;2023-09-18T07:40:22;6.90;;;6.00;;
24301;SDS011;12421;49.732;20.078;2023-09-18T07:50:25;6.50;;;5.70;;
24301;SDS011;12421;49.732;20.078;2023-09-18T08:00:30;7.20;;;5.70;;
24301;SDS011;12421;49.732;20.078;2023-09-18T08:10:38;8.30;;;5.50;;
24301;SDS011;12421;49.732;20.078;2023-09-18T08:20:43;6.40;;;5.70;;
24301;SDS011;12421;49.732;20.078;2023-09-18T08:30:47;8.50;;;6.80;;
24301;SDS011;12421;49.732;20.078;2023-09-18T08:40:50;7.70;;;7.00;;
24301;SDS011;12421;49.732;20.078;2023-09-18T08:50:55;8.60;;;6.40;;
24301;SDS011;12421;49.732;20.078;2023-09-18T09:00:58;9.70;;;7.30;;
24301;SDS011;12421;49.732;20.078;2023-09-18T09:11:03;8.80;;;7.30;;
24301;SDS011;12421;49.732;20.078;2023-09-18T09:21:07;8.10;;;7.00;;
24301;SDS011;12421;49.732;20.078;2023-09-18T09:31:10;9.90;;;7.20;;
24301;SDS011;12421;49.732;20.078;2023-09-18T09:41:14;7.60;;;6.90;;
24301;SDS011;12421;49.732;20.078;2023-09-18T09:51:18;7.70;;;7.00;;
24301;SDS011;12421;49.732;20.078;2023-09-18T10:01:24;8.20;;;7.00;;
24301;SDS011;12421;49.732;20.078;2023-09-18T10:11:31;7.70;;;6.90;;
24301;SDS011;12421;49.732;20.078;2023-09-18T10:32:04;7.70;;;6.90;;
24301;SDS011;12421;49.732;20.078;2023-09-18T10:42:11;10.00;;;7.40;;
24301;SDS011;12421;49.732;20.078;2023-09-18T10:52:15;9.00;;;7.70;;
24301;SDS011;12421;49.732;20.078;2023-09-18T11:02:18;8.20;;;7.10;;
24301;SDS011;12421;49.732;20.078;2023-09-18T11:12:23;7.00;;;6.20;;
24301;SDS011;12421;49.732;20.078;2023-09-18T11:22:58;9.00;;;6.70;;
24301;SDS011;12421;49.732;20.078;2023-09-18T11:33:40;7.40;;;6.70;;
24301;SDS011;12421;49.732;20.078;2023-09-18T11:43:42;7.40;;;6.60;;
24301;SDS011;12421;49.732;20.078;2023-09-18T11:53:46;6.80;;;6.20;;
24301;SDS011;12421;49.732;20.078;2023-09-18T12:03:54;8.10;;;6.30;;
24301;SDS011;12421;49.732;20.078;2023-09-18T12:13:58;6.00;;;5.40;;
24301;SDS011;12421;49.732;20.078;2023-09-18T12:24:01;6.30;;;5.30;;
24301;SDS011;12421;49.732;20.078;2023-09-18T12:34:04;6.90;;;5.30;;
24301;SDS011;12421;49.732;20.078;2023-09-18T12:44:10;5.80;;;4.70;;
24301;SDS011;12421;49.732;20.078;2023-09-18T12:54:14;5.80;;;5.10;;
24301;SDS011;12421;49.732;20.078;2023-09-18T13:04:19;6.20;;;5.20;;
24301;SDS011;12421;49.732;20.078;2023-09-18T13:14:24;6.70;;;5.40;;
24301;SDS011;12421;49.732;20.078;2023-09-18T13:24:29;6.20;;;4.80;;
24301;SDS011;12421;49.732;20.078;2023-09-18T13:34:33;6.60;;;5.30;;
24301;SDS011;12421;49.732;20.078;2023-09-18T13:44:36;5.20;;;4.70;;
24301;SDS011;12421;49.732;20.078;2023-09-18T13:54:39;6.00;;;5.10;;
24301;SDS011;12421;49.732;20.078;2023-09-18T14:04:44;8.20;;;5.20;;
24301;SDS011;12421;49.732;20.078;2023-09-18T14:14:47;6.30;;;5.20;;
24301;SDS011;12421;49.732;20.078;2023-09-18T14:24:51;4.80;;;4.30;;
24301;SDS011;12421;49.732;20.078;2023-09-18T14:34:54;7.80;;;4.50;;
24301;SDS011;12421;49.732;20.078;2023-09-18T14:44:57;6.30;;;4.50;;
24301;SDS011;12421;49.732;20.078;2023-09-18T14:55:01;6.20;;;4.80;;
24301;SDS011;12421;49.732;20.078;2023-09-18T15:05:08;9.00;;;4.80;;
24301;SDS011;12421;49.732;20.078;2023-09-18T15:15:15;5.80;;;4.60;;
24301;SDS011;12421;49.732;20.078;2023-09-18T15:25:19;6.80;;;5.10;;
24301;SDS011;12421;49.732;20.078;2023-09-18T15:35:24;12.50;;;5.70;;
24301;SDS011;12421;49.732;20.078;2023-09-18T15:45:28;11.50;;;6.50;;
24301;SDS011;12421;49.732;20.078;2023-09-18T15:55:31;12.80;;;6.50;;
24301;SDS011;12421;49.732;20.078;2023-09-18T16:05:35;8.70;;;7.20;;
24301;SDS011;12421;49.732;20.078;2023-09-18T16:15:38;10.10;;;6.70;;
24301;SDS011;12421;49.732;20.078;2023-09-18T16:25:41;10.40;;;8.50;;
24301;SDS011;12421;49.732;20.078;2023-09-18T16:35:45;12.30;;;8.00;;
24301;SDS011;12421;49.732;20.078;2023-09-18T16:45:50;13.50;;;9.40;;
24301;SDS011;12421;49.732;20.078;2023-09-18T17:06:22;13.70;;;9.70;;
24301;SDS011;12421;49.732;20.078;2023-09-18T17:16:26;13.80;;;10.00;;
24301;SDS011;12421;49.732;20.078;2023-09-18T17:26:30;19.00;;;14.30;;
24301;SDS011;12421;49.732;20.078;2023-09-18T17:36:33;43.20;;;20.90;;
24301;SDS011;12421;49.732;20.078;2023-09-18T17:46:44;37.30;;;27.10;;
24301;SDS011;12421;49.732;20.078;2023-09-18T17:56:48;33.70;;;25.40;;
24301;SDS011;12421;49.732;20.078;2023-09-18T18:06:51;35.90;;;24.30;;
24301;SDS011;12421;49.732;20.078;2023-09-18T18:16:54;36.00;;;23.00;;
24301;SDS011;12421;49.732;20.078;2023-09-18T18:26:59;35.00;;;23.80;;
24301;SDS011;12421;49.732;20.078;2023-09-18T18:37:02;38.20;;;22.60;;
24301;SDS011;12421;49.732;20.078;2023-09-18T18:47:06;48.00;;;30.40;;
24301;SDS011;12421;49.732;20.078;2023-09-18T18:57:09;44.50;;;26.80;;
24301;SDS011;12421;49.732;20.078;2023-09-18T19:07:12;41.70;;;26.90;;
24301;SDS011;12421;49.732;20.078;2023-09-18T19:17:16;35.00;;;22.70;;
24301;SDS011;12421;49.732;20.078;2023-09-18T19:27:19;40.60;;;22.50;;
24301;SDS011;12421;49.732;20.078;2023-09-18T19:37:23;35.50;;;21.40;;
24301;SDS011;12421;49.732;20.078;2023-09-18T19:47:26;34.60;;;24.00;;
24301;SDS011;12421;49.732;20.078;2023-09-18T19:57:30;29.30;;;20.40;;
24301;SDS011;12421;49.732;20.078;2023-09-18T20:07:33;29.10;;;19.10;;
24301;SDS011;12421;49.732;20.078;2023-09-18T20:17:37;28.50;;;18.80;;
24301;SDS011;12421;49.732;20.078;2023-09-18T20:27:41;24.20;;;16.30;;
24301;SDS011;12421;49.732;20.078;2023-09-18T20:37:45;23.70;;;16.40;;
24301;SDS011;12421;49.732;20.078;2023-09-18T20:47:48;24.80;;;16.40;;
24301;SDS011;12421;49.732;20.078;2023-09-18T20:57:51;19.90;;;14.00;;
24301;SDS011;12421;49.732;20.078;2023-09-18T21:07:54;21.20;;;15.50;;
24301;SDS011;12421;49.732;20.078;2023-09-18T21:17:58;24.40;;;14.50;;
24301;SDS011;12421;49.732;20.078;2023-09-18T21:28:04;21.80;;;15.00;;
24301;SDS011;12421;49.732;20.078;2023-09-18T21:38:07;18.50;;;12.60;;
24301;SDS011;12421;49.732;20.078;2023-09-18T21:48:10;16.80;;;13.30;;
24301;SDS011;12421;49.732;20.078;2023-09-18T21:58:14;18.40;;;11.90;;
24301;SDS011;12421;49.732;20.078;2023-09-18T22:08:17;17.50;;;13.10;;
24301;SDS011;12421;49.732;20.078;2023-09-18T22:18:21;16.10;;;12.40;;
24301;SDS011;12421;49.732;20.078;2023-09-18T22:28:24;17.70;;;13.00;;
24301;SDS011;12421;49.732;20.078;2023-09-18T22:38:42;15.90;;;11.20;;
24301;SDS011;12421;49.732;20.078;2023-09-18T22:59:52;13.40;;;10.20;;
24301;SDS011;12421;49.732;20.078;2023-09-18T23:09:58;15.10;;;10.30;;
24301;SDS011;12421;49.732;20.078;2023-09-18T23:20:01;11.60;;;8.70;;
24301;SDS011;12421;49.732;20.078;2023-09-18T23:30:11;15.30;;;10.40;;
24301;SDS011;12421;49.732;20.078;2023-09-18T23:40:20;13.20;;;9.50;;
